Airport View

Enter AWOS ICAO identifier for current METAR.

ex. KFNL

KPIT 251151Z 00000KT 6SM BR MIFG SCT250 12/11 A3008 RMK AO2 SLP191 T01220106 10144 20111 51014

25 Sep 2020 12:18

Phone: 412-472-0145

Other Area AWOS: 42PN - KAGC - KBVI - KPJC

TAF KPIT 251120Z 2512/2618 14005KT P6SM SCT250 FM260600 VRB02KT P6SM SCT250 FM261400 17007KT P6SM SKC